Dorchester, NE (68343)

9:09 AM CDT on August 21, 2014 (GMT -0500)
3 Miles East of Friend | Change Station
CLOSE
Current Station
Personal Weather Station
Location: Friend, NE
Elevation: 1531 ft
Nearby Weather Stations

Elev 1531 ft 40.66 °N, 97.22 °W | Updated 5 seconds ago

Light Rain
Light Rain
70.8 °F
Feels Like 70.8 °F
N
4.0
Wind Variable Wind from South
Gusts 5.0 mph

Today
High -- | Low -- °F
--% Chance of Precip.
Yesterday
High -- | Low -- °F
Precip. -- in
6:44 AM 8:17 PM
Waning Crescent, 14% visible
Pressure 29.78 in
Visibility 10.0 miles
Clouds Scattered Clouds 7000 ft
Mostly Cloudy 9000 ft
Mostly Cloudy 11000 ft
Dew Point 70 °F
Humidity 96%
Rainfall 0.38 in
Snow Depth Not available.
UV 0.0 out of 12
Pollen 9.20 out of 12
Air Quality Not available.
Flu Activity Not available.
METAR KLNK 211354Z 20015KT 10SM -RA SCT070 BKN090 BKN110 23/21 A2982 RMK AO2 LTG DSNT SE TSE13 SLP085 P0003 T02280206

More Conditions Fewer Conditions

Pressure 29.78 in
Visibility 10.0 miles
Clouds Scattered Clouds 7000 ft
Mostly Cloudy 9000 ft
Mostly Cloudy 11000 ft
Dew Point 70 °F
Humidity 96%
Rainfall 0.38 in
Snow Depth Not available.
UV 0.0 out of 12
Pollen 9.20 out of 12
Air Quality Not available.
Flu Activity Not available.
METAR KLNK 211354Z 20015KT 10SM -RA SCT070 BKN090 BKN110 23/21 A2982 RMK AO2 LTG DSNT SE TSE13 SLP085 P0003 T02280206

More Conditions Fewer Conditions

10-Day Weather Forecast

Almanac

Astronomy

Aug. 21, 2014 Rise Set
Actual Time 6:44 AM CDT 8:17 PM CDT
Civil Twilight 6:15 AM CDT 8:46 PM CDT
Nautical Twilight 5:41 AM CDT 9:21 PM CDT
Astronomical Twilight 5:04 AM CDT 9:57 PM CDT
Moon 3:15 AM CDT 5:47 PM CDT
Length of Visible Light 14h 30m
Length of Day
13h 32m
Tomorrow will be 2m 29s shorter.
Waning Crescent, 14% of the Moon is Illuminated
Today
Waning Crescent
Aug 25
New
Sep 2
First Quarter
Sep 8
Full
Sep 15
Last Quarter

Today's Extremes

State Highs State Lows

Community

WunderPhotos

Upload Photos

1,745,925 photos uploaded!

WunderBlogs® & News

Nearby

Snow Depth

Station Depth Elevation
No new snow has been reported.

Earthquake Activity

City Distance Mag. Time & Date
No recent earthquake activity has been reported nearby.
Minimum magnitude displayed is 2.5.

Coastal Water Temperatures

Place Temperature
No Stations Reporting

Nearby Weather Stations